Time;durP1;ratioP1;P1;durP2;ratioP2;P2;SDS_P1;SDS_P2;PMS_P1;PMS_P2;Temp;Humidity;BMP_temperature;BMP_pressure;BME280_temperature;BME280_humidity;BME280_pressure;Samples;Min_cycle;Max_cycle;Signal;HPM_P1;HPM_P2
2022/11/09 00:00:56;;;;;;;3.73;1.57;;;;;;;;;;5063353;27;81989;-62
2022/11/09 00:03:24;;;;;;;1.27;1.17;;;;;;;;;;5048785;27;84179;-62
2022/11/09 00:05:56;;;;;;;2.37;1.50;;;;;;;;;;5046130;27;83715;-63
2022/11/09 00:08:24;;;;;;;1.87;0.90;;;;;;;;;;5052618;27;83755;-62
2022/11/09 00:10:52;;;;;;;1.07;0.90;;;;;;;;;;5057525;27;83339;-62
2022/11/09 00:13:22;;;;;;;4.43;1.83;;;;;;;;;;5044898;27;83599;-62
2022/11/09 00:15:50;;;;;;;4.63;1.50;;;;;;;;;;5045652;27;83579;-62
2022/11/09 00:18:19;;;;;;;1.73;1.43;;;;;;;;;;5063239;27;84587;-62
2022/11/09 00:20:47;;;;;;;1.33;1.13;;;;;;;;;;5064921;27;81897;-62
2022/11/09 00:23:15;;;;;;;1.57;1.10;;;;;;;;;;5065155;27;84051;-62
2022/11/09 00:25:45;;;;;;;2.20;1.40;;;;;;;;;;5065665;27;84420;-62
2022/11/09 00:28:13;;;;;;;2.30;1.50;;;;;;;;;;5064663;27;82711;-62
2022/11/09 00:30:43;;;;;;;1.83;1.43;;;;;;;;;;5052632;27;82077;-62
2022/11/09 00:33:11;;;;;;;1.97;1.40;;;;;;;;;;5063472;27;83850;-62
2022/11/09 00:35:39;;;;;;;1.83;1.67;;;;;;;;;;5065734;27;84517;-62
2022/11/09 00:38:07;;;;;;;1.70;1.60;;;;;;;;;;5065236;27;82374;-62
2022/11/09 00:40:36;;;;;;;2.53;0.93;;;;;;;;;;5064721;27;82877;-63
2022/11/09 00:43:04;;;;;;;1.47;1.07;;;;;;;;;;5065421;27;83682;-63
2022/11/09 00:45:32;;;;;;;2.50;1.53;;;;;;;;;;5065622;27;84139;-63
2022/11/09 00:48:02;;;;;;;3.20;1.47;;;;;;;;;;5059485;27;83821;-63
2022/11/09 00:50:30;;;;;;;3.70;1.10;;;;;;;;;;5054881;27;81994;-62
2022/11/09 00:52:58;;;;;;;1.97;1.07;;;;;;;;;;5045091;28;83318;-62
2022/11/09 00:55:26;;;;;;;1.83;1.20;;;;;;;;;;5045013;28;86443;-63
2022/11/09 00:57:55;;;;;;;2.60;1.07;;;;;;;;;;5064966;27;82206;-63
2022/11/09 01:00:23;;;;;;;3.67;1.57;;;;;;;;;;5064739;27;81982;-63
2022/11/09 01:02:51;;;;;;;1.63;1.13;;;;;;;;;;5064571;27;83930;-63
2022/11/09 01:05:21;;;;;;;2.30;0.97;;;;;;;;;;5063832;27;84606;-62
2022/11/09 01:07:49;;;;;;;2.57;1.50;;;;;;;;;;5050114;27;84814;-63
2022/11/09 01:10:18;;;;;;;1.87;0.90;;;;;;;;;;5053259;27;82481;-62
2022/11/09 01:12:46;;;;;;;1.20;0.87;;;;;;;;;;5028120;27;82597;-62
2022/11/09 01:15:14;;;;;;;5.27;1.33;;;;;;;;;;5025254;28;83885;-62
2022/11/09 01:17:42;;;;;;;1.60;1.33;;;;;;;;;;5058756;27;82694;-62
2022/11/09 01:20:11;;;;;;;1.57;1.03;;;;;;;;;;5052519;27;81979;-62
2022/11/09 01:22:41;;;;;;;0.93;0.83;;;;;;;;;;5044038;27;82748;-62
2022/11/09 01:25:10;;;;;;;2.23;1.30;;;;;;;;;;5044024;27;82783;-62
2022/11/09 01:27:38;;;;;;;2.63;1.27;;;;;;;;;;5060306;27;83688;-62
2022/11/09 01:30:07;;;;;;;3.53;1.77;;;;;;;;;;5063491;27;83760;-62
2022/11/09 01:32:35;;;;;;;1.77;1.57;;;;;;;;;;5049834;27;83896;-62
2022/11/09 01:35:03;;;;;;;2.03;1.47;;;;;;;;;;5023524;28;84003;-62
2022/11/09 01:37:31;;;;;;;1.57;1.17;;;;;;;;;;5049728;27;83734;-62
2022/11/09 01:40:01;;;;;;;4.60;1.43;;;;;;;;;;5040417;28;81887;-62
2022/11/09 01:42:29;;;;;;;2.40;1.40;;;;;;;;;;5027113;28;83916;-62
2022/11/09 01:45:21;;;;;;;1.70;1.33;;;;;;;;;;5040369;27;84026;-62
2022/11/09 01:47:50;;;;;;;1.80;1.17;;;;;;;;;;5038631;27;83605;-62
2022/11/09 01:50:19;;;;;;;2.90;1.40;;;;;;;;;;5030013;28;82550;-62
2022/11/09 01:52:47;;;;;;;2.97;1.33;;;;;;;;;;5023724;28;82591;-62
2022/11/09 01:55:17;;;;;;;2.13;1.23;;;;;;;;;;5023378;28;84857;-61
2022/11/09 01:57:48;;;;;;;1.53;0.90;;;;;;;;;;5052993;27;84581;-62
2022/11/09 02:00:16;;;;;;;2.10;1.47;;;;;;;;;;5055903;27;81899;-62
2022/11/09 02:02:46;;;;;;;2.37;1.30;;;;;;;;;;5046785;27;86507;-62
2022/11/09 02:05:15;;;;;;;2.17;1.67;;;;;;;;;;5041656;27;82615;-62
2022/11/09 02:07:43;;;;;;;2.60;1.47;;;;;;;;;;5041716;27;83917;-62
2022/11/09 02:10:13;;;;;;;2.37;1.30;;;;;;;;;;5049714;27;82738;-62
2022/11/09 02:12:43;;;;;;;1.30;1.10;;;;;;;;;;5029621;28;83506;-62
2022/11/09 02:15:11;;;;;;;4.27;2.00;;;;;;;;;;5039324;28;84096;-62
2022/11/09 02:17:39;;;;;;;1.73;1.20;;;;;;;;;;5056997;27;83902;-62
2022/11/09 02:20:10;;;;;;;1.97;1.17;;;;;;;;;;5037917;28;82896;-62
2022/11/09 02:22:38;;;;;;;3.50;1.70;;;;;;;;;;5029282;28;82796;-62
2022/11/09 02:25:07;;;;;;;2.90;1.50;;;;;;;;;;5043978;27;83467;-62
2022/11/09 02:27:35;;;;;;;3.30;2.20;;;;;;;;;;5060225;27;84445;-62
2022/11/09 02:30:04;;;;;;;3.07;1.43;;;;;;;;;;5036111;27;82001;-62
2022/11/09 02:32:32;;;;;;;1.27;1.03;;;;;;;;;;5052157;27;84113;-62
2022/11/09 02:35:00;;;;;;;3.63;1.90;;;;;;;;;;5043493;27;83791;-62
2022/11/09 02:37:30;;;;;;;3.10;1.70;;;;;;;;;;5046117;27;86046;-62
2022/11/09 02:39:59;;;;;;;2.10;1.70;;;;;;;;;;5031915;27;83885;-62
2022/11/09 02:42:27;;;;;;;1.80;1.00;;;;;;;;;;5042840;27;83682;-62
2022/11/09 02:44:56;;;;;;;1.80;1.13;;;;;;;;;;5028002;28;85234;-62
2022/11/09 02:47:24;;;;;;;3.17;1.33;;;;;;;;;;5040917;27;84787;-62
2022/11/09 02:49:52;;;;;;;2.60;1.30;;;;;;;;;;5044387;27;83724;-62
2022/11/09 02:52:20;;;;;;;3.87;1.43;;;;;;;;;;5043548;28;83879;-62
2022/11/09 02:54:50;;;;;;;1.87;1.47;;;;;;;;;;5046819;27;87059;-62
2022/11/09 02:57:18;;;;;;;2.80;1.40;;;;;;;;;;5043983;27;83961;-62
2022/11/09 02:59:47;;;;;;;1.37;1.07;;;;;;;;;;5037918;27;81878;-62
2022/11/09 03:02:15;;;;;;;2.50;1.87;;;;;;;;;;5050240;27;83866;-62
2022/11/09 03:04:43;;;;;;;1.43;1.10;;;;;;;;;;5033345;27;86979;-62
2022/11/09 03:07:11;;;;;;;1.10;0.97;;;;;;;;;;5044307;27;81981;-62
2022/11/09 03:09:40;;;;;;;1.27;1.00;;;;;;;;;;5048495;27;82953;-62
2022/11/09 03:14:55;;;;;;;3.17;1.23;;;;;;;;;;5066558;27;84451;-62
2022/11/09 03:17:23;;;;;;;1.30;1.10;;;;;;;;;;5058065;27;84162;-62
2022/11/09 03:19:52;;;;;;;4.13;1.40;;;;;;;;;;5035016;28;81918;-62
2022/11/09 03:22:20;;;;;;;4.83;0.97;;;;;;;;;;5035992;27;84238;-62
2022/11/09 03:24:48;;;;;;;1.53;0.93;;;;;;;;;;5045520;27;84173;-62
2022/11/09 03:27:18;;;;;;;2.87;1.33;;;;;;;;;;5040747;27;81718;-62
2022/11/09 03:29:46;;;;;;;2.10;1.13;;;;;;;;;;5027949;28;82055;-62
2022/11/09 03:32:14;;;;;;;2.10;1.43;;;;;;;;;;5049233;27;83618;-62
2022/11/09 03:34:43;;;;;;;2.27;1.57;;;;;;;;;;5049969;27;84857;-62
2022/11/09 03:37:11;;;;;;;1.40;0.90;;;;;;;;;;5043888;27;83471;-62
2022/11/09 03:39:39;;;;;;;1.67;1.23;;;;;;;;;;5045915;27;82085;-62
2022/11/09 03:42:07;;;;;;;1.43;1.27;;;;;;;;;;5055169;27;83893;-62
2022/11/09 03:44:37;;;;;;;1.43;1.17;;;;;;;;;;5052483;27;84039;-62
2022/11/09 03:47:05;;;;;;;2.23;1.00;;;;;;;;;;5051056;27;83926;-62
2022/11/09 03:49:34;;;;;;;1.23;0.90;;;;;;;;;;5044638;27;82013;-64
2022/11/09 03:52:02;;;;;;;1.23;1.00;;;;;;;;;;5046505;27;84174;-62
2022/11/09 03:54:30;;;;;;;1.33;0.90;;;;;;;;;;5035459;27;82812;-62
2022/11/09 03:56:58;;;;;;;2.77;1.53;;;;;;;;;;5063347;27;83911;-62
2022/11/09 03:59:26;;;;;;;0.73;0.67;;;;;;;;;;5056716;27;82927;-62
2022/11/09 04:01:56;;;;;;;1.30;0.87;;;;;;;;;;5052495;27;83909;-62
2022/11/09 04:04:24;;;;;;;1.97;1.20;;;;;;;;;;5036733;27;83829;-62
2022/11/09 04:06:53;;;;;;;0.90;0.80;;;;;;;;;;5049625;27;82592;-62
2022/11/09 04:09:21;;;;;;;3.90;1.27;;;;;;;;;;5043689;28;82029;-62
2022/11/09 04:11:49;;;;;;;0.60;0.60;;;;;;;;;;5053005;27;83782;-63
2022/11/09 04:14:17;;;;;;;1.33;1.13;;;;;;;;;;5057632;27;84080;-62
2022/11/09 04:16:46;;;;;;;1.63;1.37;;;;;;;;;;5041197;27;82732;-62
2022/11/09 04:19:15;;;;;;;0.80;0.80;;;;;;;;;;5028507;28;82124;-63
2022/11/09 04:21:44;;;;;;;1.57;0.90;;;;;;;;;;5047803;27;84886;-62
2022/11/09 04:24:12;;;;;;;1.20;0.77;;;;;;;;;;5061155;27;85069;-63
2022/11/09 04:26:40;;;;;;;2.30;0.87;;;;;;;;;;5054343;27;84706;-63
2022/11/09 04:29:08;;;;;;;2.77;0.90;;;;;;;;;;5024616;28;82189;-63
2022/11/09 04:31:37;;;;;;;1.37;0.90;;;;;;;;;;5029133;27;82270;-63
2022/11/09 04:34:05;;;;;;;0.83;0.70;;;;;;;;;;5023750;28;86455;-62
2022/11/09 04:36:34;;;;;;;1.03;0.93;;;;;;;;;;5044039;27;83981;-63
2022/11/09 04:39:03;;;;;;;0.63;0.60;;;;;;;;;;5025196;28;81942;-63
2022/11/09 04:41:31;;;;;;;1.03;0.80;;;;;;;;;;5042429;27;82626;-63
2022/11/09 04:43:59;;;;;;;2.13;0.87;;;;;;;;;;5057827;27;82731;-62
2022/11/09 04:46:27;;;;;;;1.80;0.97;;;;;;;;;;5045286;27;83685;-63
2022/11/09 04:48:55;;;;;;;1.47;0.97;;;;;;;;;;5038566;27;82816;-63
2022/11/09 04:51:24;;;;;;;2.90;1.10;;;;;;;;;;5041370;27;83948;-63
2022/11/09 04:53:55;;;;;;;2.00;1.17;;;;;;;;;;5024511;28;84270;-63
2022/11/09 04:56:23;;;;;;;1.87;0.77;;;;;;;;;;5023884;28;82461;-62
2022/11/09 04:58:51;;;;;;;1.47;0.83;;;;;;;;;;5037036;28;82554;-62
2022/11/09 05:01:19;;;;;;;1.90;1.47;;;;;;;;;;5035278;27;82627;-63
2022/11/09 05:03:48;;;;;;;2.23;1.37;;;;;;;;;;5043596;27;84371;-63
2022/11/09 05:06:34;;;;;;;1.10;0.93;;;;;;;;;;5044675;27;84012;-63
2022/11/09 05:09:05;;;;;;;0.60;0.60;;;;;;;;;;5042543;27;82078;-63
2022/11/09 05:11:33;;;;;;;1.77;0.50;;;;;;;;;;5035087;27;83903;-63
2022/11/09 05:14:01;;;;;;;2.10;0.60;;;;;;;;;;5023409;28;85049;-63
2022/11/09 05:16:30;;;;;;;3.13;1.10;;;;;;;;;;5037028;27;84448;-63
2022/11/09 05:18:58;;;;;;;2.50;0.73;;;;;;;;;;5024393;28;81989;-63
2022/11/09 05:21:26;;;;;;;0.50;0.50;;;;;;;;;;5059658;27;83066;-63
2022/11/09 05:23:59;;;;;;;2.87;0.70;;;;;;;;;;5050767;27;83936;-63
2022/11/09 05:26:30;;;;;;;0.60;0.60;;;;;;;;;;5031289;27;84097;-63
2022/11/09 05:28:59;;;;;;;1.50;0.90;;;;;;;;;;5039132;27;82005;-63
2022/11/09 05:31:27;;;;;;;3.57;0.80;;;;;;;;;;5056963;27;86409;-63
2022/11/09 05:33:55;;;;;;;6.77;0.87;;;;;;;;;;5051014;27;83754;-63
2022/11/09 05:36:23;;;;;;;2.47;0.90;;;;;;;;;;5043471;27;83894;-63
2022/11/09 05:38:52;;;;;;;1.67;0.70;;;;;;;;;;5037110;27;82890;-63
2022/11/09 05:41:20;;;;;;;0.70;0.70;;;;;;;;;;5046152;27;83030;-63
2022/11/09 05:43:50;;;;;;;1.43;1.10;;;;;;;;;;5064760;27;82817;-63
2022/11/09 05:46:18;;;;;;;1.27;0.77;;;;;;;;;;5038110;27;83849;-63
2022/11/09 05:48:47;;;;;;;0.90;0.70;;;;;;;;;;5024176;28;81930;-62
2022/11/09 05:51:15;;;;;;;1.30;0.63;;;;;;;;;;5049187;27;83555;-63
2022/11/09 05:53:44;;;;;;;2.67;0.53;;;;;;;;;;5059090;27;82397;-63
2022/11/09 05:56:14;;;;;;;1.63;0.70;;;;;;;;;;5059538;27;83908;-62
2022/11/09 05:58:42;;;;;;;2.77;0.57;;;;;;;;;;5052778;27;81986;-63
2022/11/09 06:01:12;;;;;;;1.43;0.80;;;;;;;;;;5060708;27;83524;-63
2022/11/09 06:03:42;;;;;;;1.83;0.60;;;;;;;;;;5050836;27;83774;-60
2022/11/09 06:06:12;;;;;;;1.33;0.77;;;;;;;;;;5026999;27;83721;-60
2022/11/09 06:08:40;;;;;;;0.80;0.33;;;;;;;;;;5055776;27;82003;-61
2022/11/09 06:11:09;;;;;;;0.47;0.43;;;;;;;;;;5055857;27;83982;-60
2022/11/09 06:13:37;;;;;;;0.77;0.73;;;;;;;;;;5036719;27;84486;-60
2022/11/09 06:16:06;;;;;;;0.83;0.63;;;;;;;;;;5033834;27;83649;-60
2022/11/09 06:18:36;;;;;;;0.83;0.73;;;;;;;;;;5050646;27;82178;-60
2022/11/09 06:21:04;;;;;;;0.73;0.30;;;;;;;;;;5046021;27;83765;-60
2022/11/09 06:23:33;;;;;;;1.50;0.70;;;;;;;;;;5050539;27;83982;-60
2022/11/09 06:26:02;;;;;;;0.63;0.60;;;;;;;;;;5048546;27;82616;-60
2022/11/09 06:28:30;;;;;;;1.43;0.70;;;;;;;;;;5038147;27;83158;-60
2022/11/09 06:30:59;;;;;;;0.53;0.53;;;;;;;;;;5049611;27;83789;-60
2022/11/09 06:33:28;;;;;;;0.70;0.50;;;;;;;;;;5055426;27;83949;-60
2022/11/09 06:35:58;;;;;;;1.23;0.50;;;;;;;;;;5045160;27;83815;-60
2022/11/09 06:38:26;;;;;;;0.60;0.50;;;;;;;;;;5049224;27;81868;-60
2022/11/09 06:40:55;;;;;;;1.00;0.47;;;;;;;;;;5032883;27;82430;-60
2022/11/09 06:43:23;;;;;;;2.00;0.67;;;;;;;;;;5043173;27;86732;-60
2022/11/09 06:45:51;;;;;;;0.70;0.70;;;;;;;;;;5052492;27;82743;-61
2022/11/09 06:48:20;;;;;;;0.63;0.63;;;;;;;;;;5040281;27;83259;-60
2022/11/09 06:50:48;;;;;;;0.50;0.30;;;;;;;;;;5063358;27;83894;-61
2022/11/09 06:53:17;;;;;;;0.43;0.40;;;;;;;;;;5045811;27;84801;-60
2022/11/09 06:55:47;;;;;;;2.70;1.37;;;;;;;;;;5059472;27;84237;-60
2022/11/09 06:58:18;;;;;;;1.30;0.40;;;;;;;;;;5054580;27;81945;-59
2022/11/09 07:00:47;;;;;;;4.87;1.33;;;;;;;;;;5048668;27;82965;-60
2022/11/09 07:03:15;;;;;;;8.87;2.40;;;;;;;;;;5049438;27;83850;-60
2022/11/09 07:05:43;;;;;;;4.67;2.37;;;;;;;;;;5062954;27;83550;-60
2022/11/09 07:08:11;;;;;;;10.97;2.63;;;;;;;;;;5041536;27;82003;-60
2022/11/09 07:10:41;;;;;;;10.00;2.40;;;;;;;;;;5038243;27;83796;-60
2022/11/09 07:13:09;;;;;;;6.20;2.43;;;;;;;;;;5047221;27;83849;-61
2022/11/09 07:15:38;;;;;;;5.67;2.53;;;;;;;;;;5050793;27;84108;-62
2022/11/09 07:18:07;;;;;;;6.97;2.80;;;;;;;;;;5042653;27;82901;-66
2022/11/09 07:20:35;;;;;;;5.47;1.97;;;;;;;;;;5045020;27;83764;-64
2022/11/09 07:23:03;;;;;;;11.50;4.07;;;;;;;;;;5041706;27;83778;-61
2022/11/09 07:25:32;;;;;;;7.20;2.93;;;;;;;;;;5055149;27;83848;-62
2022/11/09 07:28:06;;;;;;;6.53;2.33;;;;;;;;;;5043155;27;82378;-61
2022/11/09 07:30:35;;;;;;;6.47;2.13;;;;;;;;;;5053733;27;83832;-62
2022/11/09 07:33:04;;;;;;;2.03;0.90;;;;;;;;;;5033905;27;83128;-62
2022/11/09 07:35:37;;;;;;;4.50;1.20;;;;;;;;;;5063896;27;84055;-62
2022/11/09 07:38:06;;;;;;;2.13;1.20;;;;;;;;;;5062377;27;81974;-61
2022/11/09 07:40:34;;;;;;;1.33;0.90;;;;;;;;;;5053590;27;83634;-61
2022/11/09 07:43:02;;;;;;;3.23;1.00;;;;;;;;;;5050285;27;84019;-62
2022/11/09 07:45:32;;;;;;;0.80;0.80;;;;;;;;;;5053505;27;84842;-61
2022/11/09 07:48:01;;;;;;;0.50;0.50;;;;;;;;;;5047135;27;81971;-60
2022/11/09 07:50:30;;;;;;;2.73;1.10;;;;;;;;;;5042955;28;84983;-60
2022/11/09 07:52:58;;;;;;;0.67;0.63;;;;;;;;;;5032214;28;83256;-61
2022/11/09 07:55:27;;;;;;;3.03;0.73;;;;;;;;;;5034943;28;83924;-61
2022/11/09 07:57:56;;;;;;;4.50;0.50;;;;;;;;;;5042154;27;81939;-60
2022/11/09 08:00:24;;;;;;;1.10;0.93;;;;;;;;;;5027959;28;83804;-60
2022/11/09 08:02:54;;;;;;;1.03;0.80;;;;;;;;;;5044926;27;82732;-60
2022/11/09 08:05:22;;;;;;;1.87;0.60;;;;;;;;;;5043372;28;83880;-60
2022/11/09 08:07:54;;;;;;;3.37;1.30;;;;;;;;;;5040266;27;82904;-61
2022/11/09 08:10:23;;;;;;;0.60;0.60;;;;;;;;;;5033192;28;83920;-61
2022/11/09 08:12:54;;;;;;;1.40;0.80;;;;;;;;;;5044699;28;83936;-61
2022/11/09 08:15:23;;;;;;;1.93;0.80;;;;;;;;;;5027822;27;83442;-61
2022/11/09 08:17:51;;;;;;;0.70;0.43;;;;;;;;;;5024988;28;81792;-61
2022/11/09 08:20:21;;;;;;;2.90;0.47;;;;;;;;;;5025855;28;83967;-61
2022/11/09 08:22:49;;;;;;;0.87;0.57;;;;;;;;;;5035850;28;84200;-61
2022/11/09 08:25:17;;;;;;;0.40;0.40;;;;;;;;;;5036084;28;83683;-61
2022/11/09 08:27:46;;;;;;;1.23;0.63;;;;;;;;;;5042390;28;82545;-61
2022/11/09 08:30:14;;;;;;;2.37;0.80;;;;;;;;;;5025465;28;86446;-60
2022/11/09 08:32:43;;;;;;;0.47;0.40;;;;;;;;;;5039497;28;85345;-60
2022/11/09 08:35:12;;;;;;;0.50;0.50;;;;;;;;;;5026101;28;84752;-61
2022/11/09 08:37:42;;;;;;;0.30;0.30;;;;;;;;;;5028750;28;82027;-61
2022/11/09 08:40:10;;;;;;;3.00;0.83;;;;;;;;;;5045088;27;83987;-60
2022/11/09 08:42:38;;;;;;;0.93;0.40;;;;;;;;;;5044945;27;83864;-61
2022/11/09 08:45:07;;;;;;;2.47;0.90;;;;;;;;;;5040970;28;82728;-60
2022/11/09 08:47:35;;;;;;;1.53;0.70;;;;;;;;;;5044342;27;82024;-61
2022/11/09 08:50:04;;;;;;;0.83;0.43;;;;;;;;;;5044629;27;83582;-61
2022/11/09 08:52:32;;;;;;;0.97;0.53;;;;;;;;;;5042761;28;84088;-61
2022/11/09 08:55:02;;;;;;;1.47;0.73;;;;;;;;;;5042910;27;83712;-61
2022/11/09 08:57:30;;;;;;;0.60;0.50;;;;;;;;;;5028519;28;82869;-61
2022/11/09 08:59:59;;;;;;;2.27;1.03;;;;;;;;;;5024067;28;82748;-61
2022/11/09 09:02:27;;;;;;;1.03;0.67;;;;;;;;;;5024137;28;84119;-61
2022/11/09 09:04:55;;;;;;;1.03;0.63;;;;;;;;;;5024384;28;82517;-61
2022/11/09 09:07:23;;;;;;;0.47;0.30;;;;;;;;;;5023214;28;82026;-61
2022/11/09 09:09:52;;;;;;;3.37;0.87;;;;;;;;;;5024484;28;84270;-61
2022/11/09 09:12:21;;;;;;;0.40;0.40;;;;;;;;;;5024136;28;84318;-61
2022/11/09 09:14:50;;;;;;;2.07;0.50;;;;;;;;;;5024268;28;83669;-61
2022/11/09 09:17:18;;;;;;;0.50;0.50;;;;;;;;;;5023004;28;81999;-61
2022/11/09 09:19:46;;;;;;;0.60;0.60;;;;;;;;;;5023775;28;84052;-61
2022/11/09 09:22:17;;;;;;;0.60;0.37;;;;;;;;;;5022794;28;83813;-60
2022/11/09 09:24:45;;;;;;;0.30;0.30;;;;;;;;;;5023802;28;84528;-61
2022/11/09 09:27:13;;;;;;;0.53;0.30;;;;;;;;;;5038209;28;83728;-61
2022/11/09 09:29:43;;;;;;;1.10;0.60;;;;;;;;;;5026716;28;83705;-61
2022/11/09 09:32:12;;;;;;;2.30;0.53;;;;;;;;;;5031094;27;82643;-60
2022/11/09 09:34:40;;;;;;;0.47;0.40;;;;;;;;;;5036362;27;83705;-61
2022/11/09 09:37:08;;;;;;;0.73;0.40;;;;;;;;;;5024313;28;81976;-61
2022/11/09 09:39:36;;;;;;;2.47;0.70;;;;;;;;;;5024360;28;84162;-60
2022/11/09 09:42:05;;;;;;;1.07;0.50;;;;;;;;;;5025407;28;82945;-60
2022/11/09 09:44:35;;;;;;;0.63;0.50;;;;;;;;;;5029619;28;83793;-60
2022/11/09 09:47:07;;;;;;;0.50;0.50;;;;;;;;;;5042076;27;82927;-60
2022/11/09 09:49:36;;;;;;;0.37;0.30;;;;;;;;;;5044856;28;84229;-60
2022/11/09 09:52:06;;;;;;;0.93;0.67;;;;;;;;;;5044269;27;83977;-60
2022/11/09 09:54:34;;;;;;;1.03;0.90;;;;;;;;;;5037586;27;83667;-61
2022/11/09 09:57:03;;;;;;;0.20;0.20;;;;;;;;;;5040135;28;81953;-61
2022/11/09 09:59:33;;;;;;;1.70;0.50;;;;;;;;;;5043586;28;83984;-60
2022/11/09 10:02:02;;;;;;;1.70;0.70;;;;;;;;;;5034164;28;84217;-61
2022/11/09 10:04:35;;;;;;;3.03;0.90;;;;;;;;;;5024125;28;84469;-61
2022/11/09 10:07:05;;;;;;;0.70;0.67;;;;;;;;;;5036244;27;81881;-61
2022/11/09 10:09:39;;;;;;;1.60;0.53;;;;;;;;;;5064550;27;82642;-61
2022/11/09 10:12:10;;;;;;;0.50;0.50;;;;;;;;;;5063526;27;84854;-61
2022/11/09 10:14:41;;;;;;;0.37;0.37;;;;;;;;;;5064255;27;83676;-61
2022/11/09 10:17:12;;;;;;;3.40;0.20;;;;;;;;;;5064361;27;82011;-63
2022/11/09 10:19:51;;;;;;;0.40;0.30;;;;;;;;;;5059426;27;83645;-61
2022/11/09 10:22:22;;;;;;;4.47;0.40;;;;;;;;;;5038051;27;84075;-63
2022/11/09 10:24:52;;;;;;;1.80;0.53;;;;;;;;;;5033910;28;83975;-63
2022/11/09 10:27:42;;;;;;;0.37;0.37;;;;;;;;;;5035522;28;83295;-62
2022/11/09 10:30:13;;;;;;;0.50;0.50;;;;;;;;;;5036598;28;83895;-63
2022/11/09 10:32:41;;;;;;;0.30;0.30;;;;;;;;;;5041983;28;83623;-61
2022/11/09 10:35:16;;;;;;;0.40;0.40;;;;;;;;;;5038722;27;83564;-62
2022/11/09 10:37:45;;;;;;;3.87;1.07;;;;;;;;;;5021637;28;82966;-61
2022/11/09 10:40:17;;;;;;;116.57;35.37;;;;;;;;;;5022419;28;83607;-70
2022/11/09 10:42:46;;;;;;;124.43;40.30;;;;;;;;;;5020019;28;83840;-62
2022/11/09 10:45:22;;;;;;;100.23;30.47;;;;;;;;;;5025826;28;83778;-63
2022/11/09 10:47:51;;;;;;;94.23;29.90;;;;;;;;;;5041739;27;82973;-63
2022/11/09 10:50:23;;;;;;;51.67;18.27;;;;;;;;;;5041549;27;82722;-61
2022/11/09 10:52:52;;;;;;;60.43;19.13;;;;;;;;;;5042029;27;84035;-62
2022/11/09 10:55:24;;;;;;;46.23;15.23;;;;;;;;;;5042115;27;84870;-61
2022/11/09 10:57:53;;;;;;;25.13;12.67;;;;;;;;;;5041764;28;84230;-61
2022/11/09 11:00:22;;;;;;;34.60;11.17;;;;;;;;;;5042129;27;82800;-62
2022/11/09 11:02:50;;;;;;;18.87;9.80;;;;;;;;;;5041633;28;87866;-61
2022/11/09 11:05:33;;;;;;;18.77;7.80;;;;;;;;;;5042751;28;83708;-62
2022/11/09 11:08:25;;;;;;;24.57;8.47;;;;;;;;;;5046098;27;82030;-62
2022/11/09 11:11:00;;;;;;;14.80;6.43;;;;;;;;;;5036626;27;83870;-62
2022/11/09 11:13:48;;;;;;;12.07;5.07;;;;;;;;;;5046673;27;85294;-62
2022/11/09 11:16:24;;;;;;;18.40;5.27;;;;;;;;;;5046399;27;82692;-62
2022/11/09 11:18:52;;;;;;;13.20;3.20;;;;;;;;;;5046303;27;81969;-62
2022/11/09 11:21:22;;;;;;;8.63;3.40;;;;;;;;;;5046551;27;83791;-64
2022/11/09 11:24:09;;;;;;;8.57;2.77;;;;;;;;;;5045908;27;84283;-62
2022/11/09 11:26:38;;;;;;;5.60;2.00;;;;;;;;;;5054410;27;83900;-62
2022/11/09 11:29:07;;;;;;;10.17;2.10;;;;;;;;;;5044730;27;83090;-61
2022/11/09 11:31:36;;;;;;;3.03;1.80;;;;;;;;;;5045928;28;84016;-61
2022/11/09 11:34:05;;;;;;;1.63;1.30;;;;;;;;;;5044581;28;83723;-62
2022/11/09 11:36:39;;;;;;;2.93;1.20;;;;;;;;;;5046227;28;83490;-61
2022/11/09 11:39:13;;;;;;;1.87;1.17;;;;;;;;;;5045929;27;81857;-61
2022/11/09 11:41:59;;;;;;;1.90;0.73;;;;;;;;;;5045530;28;84098;-61
2022/11/09 11:44:31;;;;;;;1.47;1.10;;;;;;;;;;5045582;27;83139;-61
2022/11/09 11:47:01;;;;;;;0.80;0.63;;;;;;;;;;5046423;28;82970;-61
2022/11/09 11:49:45;;;;;;;3.60;1.63;;;;;;;;;;5045445;28;81894;-61
2022/11/09 11:52:16;;;;;;;3.03;1.23;;;;;;;;;;5045368;28;82121;-62
2022/11/09 11:54:48;;;;;;;2.60;1.20;;;;;;;;;;5034272;28;87488;-61
2022/11/09 11:57:18;;;;;;;1.87;1.13;;;;;;;;;;5034995;28;84851;-61
2022/11/09 11:59:59;;;;;;;3.07;1.33;;;;;;;;;;5029852;28;82007;-61
2022/11/09 12:02:45;;;;;;;0.70;0.70;;;;;;;;;;5047675;27;83721;-61
2022/11/09 12:05:26;;;;;;;1.07;0.93;;;;;;;;;;5065608;27;82808;-61
2022/11/09 12:07:57;;;;;;;1.87;1.10;;;;;;;;;;5066105;27;83518;-61
2022/11/09 12:10:30;;;;;;;1.10;1.00;;;;;;;;;;5065603;27;82193;-61
2022/11/09 12:13:00;;;;;;;0.63;0.63;;;;;;;;;;5065685;27;83870;-61
2022/11/09 12:15:32;;;;;;;1.97;0.63;;;;;;;;;;5046828;27;84109;-61
2022/11/09 12:18:04;;;;;;;0.90;0.90;;;;;;;;;;5037210;27;83811;-61
2022/11/09 12:20:33;;;;;;;0.70;0.70;;;;;;;;;;5044280;27;82884;-61
2022/11/09 12:23:09;;;;;;;3.13;0.83;;;;;;;;;;5045013;27;83909;-61
2022/11/09 12:25:39;;;;;;;0.87;0.87;;;;;;;;;;5045046;27;84263;-61
2022/11/09 12:28:12;;;;;;;2.03;1.37;;;;;;;;;;5044985;27;83647;-61
2022/11/09 12:30:44;;;;;;;1.77;1.00;;;;;;;;;;5044567;27;82532;-61
2022/11/09 12:33:13;;;;;;;1.40;0.80;;;;;;;;;;5045088;27;84258;-61
2022/11/09 12:35:42;;;;;;;2.20;0.90;;;;;;;;;;5044850;28;83513;-61
2022/11/09 12:38:14;;;;;;;1.30;0.80;;;;;;;;;;5044789;27;84012;-61
2022/11/09 12:40:43;;;;;;;1.00;0.90;;;;;;;;;;5044258;27;82173;-61
2022/11/09 12:43:15;;;;;;;0.63;0.63;;;;;;;;;;5034021;27;83381;-61
2022/11/09 12:45:44;;;;;;;2.00;1.07;;;;;;;;;;5064302;27;85154;-61
2022/11/09 12:48:17;;;;;;;2.57;0.70;;;;;;;;;;5059690;27;84460;-61
2022/11/09 12:50:45;;;;;;;1.60;0.73;;;;;;;;;;5049776;27;81877;-61
2022/11/09 12:53:15;;;;;;;2.93;1.00;;;;;;;;;;5065283;27;83476;-61
2022/11/09 12:55:44;;;;;;;1.27;0.87;;;;;;;;;;5065285;27;87398;-61
2022/11/09 12:58:22;;;;;;;1.77;0.80;;;;;;;;;;5064661;27;83788;-61
2022/11/09 13:00:52;;;;;;;0.57;0.47;;;;;;;;;;5053675;27;82085;-61
2022/11/09 13:03:22;;;;;;;0.70;0.70;;;;;;;;;;5045223;28;83614;-61
2022/11/09 13:06:09;;;;;;;0.83;0.60;;;;;;;;;;5044416;28;83989;-61
2022/11/09 13:08:39;;;;;;;0.73;0.60;;;;;;;;;;5024185;28;83636;-60
2022/11/09 13:11:20;;;;;;;0.80;0.53;;;;;;;;;;5023725;28;83034;-60
2022/11/09 13:13:48;;;;;;;2.23;0.70;;;;;;;;;;5024229;28;82955;-60
2022/11/09 13:16:33;;;;;;;0.50;0.40;;;;;;;;;;5024295;28;84039;-61
2022/11/09 13:19:01;;;;;;;0.87;0.50;;;;;;;;;;5024352;28;82969;-61
2022/11/09 13:21:36;;;;;;;1.43;0.60;;;;;;;;;;5024495;28;81871;-61
2022/11/09 13:24:23;;;;;;;1.63;0.60;;;;;;;;;;5024476;28;84012;-61
2022/11/09 13:26:55;;;;;;;0.87;0.50;;;;;;;;;;5024052;28;84545;-61
2022/11/09 13:29:24;;;;;;;1.53;0.83;;;;;;;;;;5035283;27;83499;-61
2022/11/09 13:32:06;;;;;;;0.40;0.40;;;;;;;;;;5044885;27;82046;-61
2022/11/09 13:34:44;;;;;;;0.73;0.73;;;;;;;;;;5044374;27;83933;-61
2022/11/09 13:37:31;;;;;;;0.83;0.60;;;;;;;;;;5037675;28;85074;-60
2022/11/09 13:39:59;;;;;;;0.87;0.70;;;;;;;;;;5044314;28;84886;-60
2022/11/09 13:42:29;;;;;;;0.30;0.30;;;;;;;;;;5044817;27;81981;-60
2022/11/09 13:45:13;;;;;;;1.93;0.53;;;;;;;;;;5044643;28;82833;-60
2022/11/09 13:47:41;;;;;;;2.43;0.53;;;;;;;;;;5044268;27;84040;-60
2022/11/09 13:50:12;;;;;;;0.43;0.40;;;;;;;;;;5043028;28;84009;-60
2022/11/09 13:52:50;;;;;;;0.27;0.27;;;;;;;;;;5039811;28;81940;-62
2022/11/09 13:55:39;;;;;;;0.77;0.50;;;;;;;;;;5025090;28;83777;-61
2022/11/09 13:58:12;;;;;;;1.03;0.50;;;;;;;;;;5023189;28;84186;-62
2022/11/09 14:00:45;;;;;;;0.90;0.90;;;;;;;;;;5038383;28;84315;-62
2022/11/09 14:03:18;;;;;;;0.57;0.57;;;;;;;;;;5021925;27;83664;-60
2022/11/09 14:05:46;;;;;;;1.87;0.67;;;;;;;;;;5054579;27;83621;-60
2022/11/09 14:08:17;;;;;;;0.50;0.47;;;;;;;;;;5043560;27;82987;-60
2022/11/09 14:10:47;;;;;;;0.23;0.23;;;;;;;;;;5043549;28;83805;-60
2022/11/09 14:13:39;;;;;;;2.37;0.60;;;;;;;;;;5043716;28;81813;-60
2022/11/09 14:16:10;;;;;;;2.77;0.77;;;;;;;;;;5033319;27;83889;-60
2022/11/09 14:18:41;;;;;;;0.93;0.50;;;;;;;;;;5043724;27;83543;-60
2022/11/09 14:21:14;;;;;;;0.70;0.57;;;;;;;;;;5043326;28;82911;-60
2022/11/09 14:23:43;;;;;;;0.33;0.33;;;;;;;;;;5042923;27;81905;-60
2022/11/09 14:26:16;;;;;;;0.40;0.40;;;;;;;;;;5041741;27;82413;-60
2022/11/09 14:28:44;;;;;;;0.40;0.40;;;;;;;;;;5032456;27;85037;-60
2022/11/09 14:31:24;;;;;;;5.17;0.80;;;;;;;;;;5053514;27;85109;-60
2022/11/09 14:33:59;;;;;;;0.67;0.40;;;;;;;;;;5059204;27;81899;-60
2022/11/09 14:36:27;;;;;;;0.50;0.50;;;;;;;;;;5049347;27;84268;-60
2022/11/09 14:38:56;;;;;;;1.37;0.50;;;;;;;;;;5042811;27;82715;-60
2022/11/09 14:41:25;;;;;;;0.43;0.43;;;;;;;;;;5063595;27;82412;-60
2022/11/09 14:43:53;;;;;;;1.17;0.50;;;;;;;;;;5054905;27;82061;-61
2022/11/09 14:46:22;;;;;;;0.40;0.40;;;;;;;;;;5045333;28;83642;-62
2022/11/09 14:48:52;;;;;;;1.23;0.50;;;;;;;;;;5043468;27;82508;-60
2022/11/09 14:51:20;;;;;;;0.57;0.40;;;;;;;;;;5042843;27;83766;-60
2022/11/09 14:53:49;;;;;;;0.83;0.47;;;;;;;;;;5042750;27;82974;-61
2022/11/09 14:56:18;;;;;;;0.30;0.30;;;;;;;;;;5042606;27;83809;-60
2022/11/09 14:58:47;;;;;;;3.40;0.93;;;;;;;;;;5042750;27;82931;-60
2022/11/09 15:01:20;;;;;;;0.40;0.40;;;;;;;;;;5029795;28;83589;-60